sensor_id;sensor_type;location;lat;lon;timestamp;P1;durP1;ratioP1;P2;durP2;ratioP2
85751;SDS011;76192;39.766;2.716;2024-03-06T00:02:03;25.10;;;14.40;;
85751;SDS011;76192;39.766;2.716;2024-03-06T00:04:29;25.80;;;16.80;;
85751;SDS011;76192;39.766;2.716;2024-03-06T00:06:55;26.70;;;15.60;;
85751;SDS011;76192;39.766;2.716;2024-03-06T00:09:23;24.20;;;14.60;;
85751;SDS011;76192;39.766;2.716;2024-03-06T00:11:49;26.00;;;15.70;;
85751;SDS011;76192;39.766;2.716;2024-03-06T00:14:16;23.00;;;13.80;;
85751;SDS011;76192;39.766;2.716;2024-03-06T00:16:45;22.10;;;12.80;;
85751;SDS011;76192;39.766;2.716;2024-03-06T00:19:11;22.40;;;11.80;;
85751;SDS011;76192;39.766;2.716;2024-03-06T00:21:36;17.60;;;9.70;;
85751;SDS011;76192;39.766;2.716;2024-03-06T00:24:02;16.90;;;9.50;;
85751;SDS011;76192;39.766;2.716;2024-03-06T00:26:31;17.70;;;9.70;;
85751;SDS011;76192;39.766;2.716;2024-03-06T00:28:57;23.60;;;11.60;;
85751;SDS011;76192;39.766;2.716;2024-03-06T00:31:22;17.00;;;9.80;;
85751;SDS011;76192;39.766;2.716;2024-03-06T00:33:48;18.30;;;11.90;;
85751;SDS011;76192;39.766;2.716;2024-03-06T00:36:13;18.60;;;11.90;;
85751;SDS011;76192;39.766;2.716;2024-03-06T00:38:39;20.10;;;10.90;;
85751;SDS011;76192;39.766;2.716;2024-03-06T00:41:04;20.80;;;13.20;;
85751;SDS011;76192;39.766;2.716;2024-03-06T00:43:30;19.20;;;12.10;;
85751;SDS011;76192;39.766;2.716;2024-03-06T00:45:56;20.80;;;13.00;;
85751;SDS011;76192;39.766;2.716;2024-03-06T00:48:22;21.20;;;12.90;;
85751;SDS011;76192;39.766;2.716;2024-03-06T00:50:47;18.30;;;11.30;;
85751;SDS011;76192;39.766;2.716;2024-03-06T00:53:13;20.50;;;12.10;;
85751;SDS011;76192;39.766;2.716;2024-03-06T00:55:39;17.00;;;11.20;;
85751;SDS011;76192;39.766;2.716;2024-03-06T00:58:04;19.70;;;10.90;;
85751;SDS011;76192;39.766;2.716;2024-03-06T01:00:31;22.10;;;11.60;;
85751;SDS011;76192;39.766;2.716;2024-03-06T01:02:57;15.70;;;9.90;;
85751;SDS011;76192;39.766;2.716;2024-03-06T01:05:22;15.10;;;9.40;;
85751;SDS011;76192;39.766;2.716;2024-03-06T01:07:48;17.70;;;9.90;;
85751;SDS011;76192;39.766;2.716;2024-03-06T01:10:13;18.40;;;10.60;;
85751;SDS011;76192;39.766;2.716;2024-03-06T01:12:39;16.20;;;10.00;;
85751;SDS011;76192;39.766;2.716;2024-03-06T01:15:05;15.60;;;8.80;;
85751;SDS011;76192;39.766;2.716;2024-03-06T01:17:32;17.70;;;9.60;;
85751;SDS011;76192;39.766;2.716;2024-03-06T01:19:58;16.00;;;8.20;;
85751;SDS011;76192;39.766;2.716;2024-03-06T01:22:25;12.60;;;8.30;;
85751;SDS011;76192;39.766;2.716;2024-03-06T01:24:51;18.40;;;11.20;;
85751;SDS011;76192;39.766;2.716;2024-03-06T01:27:17;22.20;;;11.80;;
85751;SDS011;76192;39.766;2.716;2024-03-06T01:29:42;17.90;;;11.60;;
85751;SDS011;76192;39.766;2.716;2024-03-06T01:32:08;14.50;;;11.50;;
85751;SDS011;76192;39.766;2.716;2024-03-06T01:34:35;21.00;;;11.30;;
85751;SDS011;76192;39.766;2.716;2024-03-06T01:37:01;17.30;;;11.30;;
85751;SDS011;76192;39.766;2.716;2024-03-06T01:39:26;19.10;;;11.40;;
85751;SDS011;76192;39.766;2.716;2024-03-06T01:41:52;20.20;;;11.50;;
85751;SDS011;76192;39.766;2.716;2024-03-06T01:44:18;19.00;;;12.00;;
85751;SDS011;76192;39.766;2.716;2024-03-06T01:46:45;16.90;;;11.20;;
85751;SDS011;76192;39.766;2.716;2024-03-06T01:49:12;18.00;;;9.10;;
85751;SDS011;76192;39.766;2.716;2024-03-06T01:51:39;14.70;;;9.80;;
85751;SDS011;76192;39.766;2.716;2024-03-06T01:54:05;14.40;;;8.80;;
85751;SDS011;76192;39.766;2.716;2024-03-06T01:56:32;17.00;;;8.00;;
85751;SDS011;76192;39.766;2.716;2024-03-06T01:58:59;11.50;;;6.80;;
85751;SDS011;76192;39.766;2.716;2024-03-06T02:01:29;14.70;;;7.90;;
85751;SDS011;76192;39.766;2.716;2024-03-06T02:03:56;14.90;;;9.50;;
85751;SDS011;76192;39.766;2.716;2024-03-06T02:06:22;13.50;;;7.50;;
85751;SDS011;76192;39.766;2.716;2024-03-06T02:08:48;11.30;;;7.40;;
85751;SDS011;76192;39.766;2.716;2024-03-06T02:11:13;9.40;;;6.80;;
85751;SDS011;76192;39.766;2.716;2024-03-06T02:13:40;10.50;;;6.70;;
85751;SDS011;76192;39.766;2.716;2024-03-06T02:16:06;11.90;;;6.60;;
85751;SDS011;76192;39.766;2.716;2024-03-06T02:18:32;10.20;;;6.30;;
85751;SDS011;76192;39.766;2.716;2024-03-06T02:20:58;9.60;;;6.60;;
85751;SDS011;76192;39.766;2.716;2024-03-06T02:23:24;9.40;;;7.40;;
85751;SDS011;76192;39.766;2.716;2024-03-06T02:25:49;7.40;;;4.80;;
85751;SDS011;76192;39.766;2.716;2024-03-06T02:28:15;6.60;;;4.90;;
85751;SDS011;76192;39.766;2.716;2024-03-06T02:30:42;7.20;;;4.50;;
85751;SDS011;76192;39.766;2.716;2024-03-06T02:33:08;7.30;;;4.90;;
85751;SDS011;76192;39.766;2.716;2024-03-06T02:35:37;5.60;;;4.30;;
85751;SDS011;76192;39.766;2.716;2024-03-06T02:38:05;6.80;;;4.80;;
85751;SDS011;76192;39.766;2.716;2024-03-06T02:40:31;7.70;;;5.00;;
85751;SDS011;76192;39.766;2.716;2024-03-06T02:42:57;7.30;;;5.20;;
85751;SDS011;76192;39.766;2.716;2024-03-06T02:45:23;11.10;;;6.40;;
85751;SDS011;76192;39.766;2.716;2024-03-06T02:47:48;8.50;;;5.70;;
85751;SDS011;76192;39.766;2.716;2024-03-06T02:50:15;10.10;;;6.40;;
85751;SDS011;76192;39.766;2.716;2024-03-06T02:52:41;9.40;;;6.50;;
85751;SDS011;76192;39.766;2.716;2024-03-06T02:55:07;7.80;;;5.40;;
85751;SDS011;76192;39.766;2.716;2024-03-06T02:57:33;11.30;;;6.00;;
85751;SDS011;76192;39.766;2.716;2024-03-06T02:59:58;11.00;;;5.90;;
85751;SDS011;76192;39.766;2.716;2024-03-06T03:02:25;9.00;;;6.80;;
85751;SDS011;76192;39.766;2.716;2024-03-06T03:04:51;10.80;;;6.30;;
85751;SDS011;76192;39.766;2.716;2024-03-06T03:07:17;7.50;;;4.90;;
85751;SDS011;76192;39.766;2.716;2024-03-06T03:09:46;6.80;;;4.60;;
85751;SDS011;76192;39.766;2.716;2024-03-06T03:12:12;10.60;;;6.30;;
85751;SDS011;76192;39.766;2.716;2024-03-06T03:14:41;6.70;;;4.40;;
85751;SDS011;76192;39.766;2.716;2024-03-06T03:17:08;7.10;;;4.60;;
85751;SDS011;76192;39.766;2.716;2024-03-06T03:19:34;8.50;;;5.20;;
85751;SDS011;76192;39.766;2.716;2024-03-06T03:22:00;8.10;;;4.70;;
85751;SDS011;76192;39.766;2.716;2024-03-06T03:24:25;10.10;;;5.50;;
85751;SDS011;76192;39.766;2.716;2024-03-06T03:26:52;6.70;;;5.10;;
85751;SDS011;76192;39.766;2.716;2024-03-06T03:29:18;7.20;;;4.40;;
85751;SDS011;76192;39.766;2.716;2024-03-06T03:31:44;5.90;;;4.80;;
85751;SDS011;76192;39.766;2.716;2024-03-06T03:34:09;8.00;;;4.30;;
85751;SDS011;76192;39.766;2.716;2024-03-06T03:36:41;8.40;;;6.10;;
85751;SDS011;76192;39.766;2.716;2024-03-06T03:39:07;11.80;;;5.60;;
85751;SDS011;76192;39.766;2.716;2024-03-06T03:41:46;7.90;;;5.40;;
85751;SDS011;76192;39.766;2.716;2024-03-06T03:44:16;7.60;;;5.30;;
85751;SDS011;76192;39.766;2.716;2024-03-06T03:46:46;8.10;;;5.30;;
85751;SDS011;76192;39.766;2.716;2024-03-06T03:49:11;7.20;;;5.30;;
85751;SDS011;76192;39.766;2.716;2024-03-06T03:51:37;10.00;;;5.10;;
85751;SDS011;76192;39.766;2.716;2024-03-06T03:54:04;9.60;;;5.10;;
85751;SDS011;76192;39.766;2.716;2024-03-06T03:56:30;7.40;;;5.40;;
85751;SDS011;76192;39.766;2.716;2024-03-06T03:58:57;33.90;;;16.30;;
85751;SDS011;76192;39.766;2.716;2024-03-06T04:01:23;22.50;;;10.70;;
85751;SDS011;76192;39.766;2.716;2024-03-06T04:03:50;23.80;;;12.20;;
85751;SDS011;76192;39.766;2.716;2024-03-06T04:06:16;14.50;;;8.60;;
85751;SDS011;76192;39.766;2.716;2024-03-06T04:08:42;14.00;;;6.90;;
85751;SDS011;76192;39.766;2.716;2024-03-06T04:11:07;9.50;;;5.70;;
85751;SDS011;76192;39.766;2.716;2024-03-06T04:13:36;11.10;;;6.10;;
85751;SDS011;76192;39.766;2.716;2024-03-06T04:16:02;12.50;;;5.80;;
85751;SDS011;76192;39.766;2.716;2024-03-06T04:18:29;13.20;;;8.10;;
85751;SDS011;76192;39.766;2.716;2024-03-06T04:21:04;11.00;;;7.30;;
85751;SDS011;76192;39.766;2.716;2024-03-06T04:23:31;8.50;;;4.40;;
85751;SDS011;76192;39.766;2.716;2024-03-06T04:25:58;7.50;;;5.20;;
85751;SDS011;76192;39.766;2.716;2024-03-06T04:28:27;7.30;;;5.70;;
85751;SDS011;76192;39.766;2.716;2024-03-06T04:30:52;8.10;;;4.80;;
85751;SDS011;76192;39.766;2.716;2024-03-06T04:33:19;10.50;;;5.20;;
85751;SDS011;76192;39.766;2.716;2024-03-06T04:35:45;7.50;;;4.80;;
85751;SDS011;76192;39.766;2.716;2024-03-06T04:38:11;6.40;;;4.40;;
85751;SDS011;76192;39.766;2.716;2024-03-06T04:40:36;7.60;;;4.10;;
85751;SDS011;76192;39.766;2.716;2024-03-06T04:43:02;7.90;;;5.10;;
85751;SDS011;76192;39.766;2.716;2024-03-06T04:45:27;6.80;;;4.60;;
85751;SDS011;76192;39.766;2.716;2024-03-06T04:47:56;6.70;;;4.90;;
85751;SDS011;76192;39.766;2.716;2024-03-06T04:50:21;5.10;;;4.20;;
85751;SDS011;76192;39.766;2.716;2024-03-06T04:52:47;7.90;;;5.50;;
85751;SDS011;76192;39.766;2.716;2024-03-06T04:55:12;8.00;;;5.40;;
85751;SDS011;76192;39.766;2.716;2024-03-06T04:57:42;8.00;;;4.70;;
85751;SDS011;76192;39.766;2.716;2024-03-06T05:00:09;7.90;;;4.60;;
85751;SDS011;76192;39.766;2.716;2024-03-06T05:02:36;7.60;;;4.70;;
85751;SDS011;76192;39.766;2.716;2024-03-06T05:05:03;6.10;;;4.30;;
85751;SDS011;76192;39.766;2.716;2024-03-06T05:07:29;6.50;;;4.40;;
85751;SDS011;76192;39.766;2.716;2024-03-06T05:09:56;7.40;;;3.90;;
85751;SDS011;76192;39.766;2.716;2024-03-06T05:12:25;8.80;;;3.90;;
85751;SDS011;76192;39.766;2.716;2024-03-06T05:14:52;6.00;;;3.50;;
85751;SDS011;76192;39.766;2.716;2024-03-06T05:17:18;5.20;;;2.70;;
85751;SDS011;76192;39.766;2.716;2024-03-06T05:19:47;4.90;;;3.50;;
85751;SDS011;76192;39.766;2.716;2024-03-06T05:22:14;5.80;;;3.70;;
85751;SDS011;76192;39.766;2.716;2024-03-06T05:24:41;4.60;;;3.30;;
85751;SDS011;76192;39.766;2.716;2024-03-06T05:27:07;4.70;;;3.50;;
85751;SDS011;76192;39.766;2.716;2024-03-06T05:29:35;5.50;;;3.30;;
85751;SDS011;76192;39.766;2.716;2024-03-06T05:32:02;6.10;;;4.10;;
85751;SDS011;76192;39.766;2.716;2024-03-06T05:34:37;7.80;;;4.50;;
85751;SDS011;76192;39.766;2.716;2024-03-06T05:37:02;5.60;;;4.00;;
85751;SDS011;76192;39.766;2.716;2024-03-06T05:39:29;5.40;;;4.00;;
85751;SDS011;76192;39.766;2.716;2024-03-06T05:41:55;6.40;;;4.50;;
85751;SDS011;76192;39.766;2.716;2024-03-06T05:44:27;9.20;;;5.00;;
85751;SDS011;76192;39.766;2.716;2024-03-06T05:46:53;6.50;;;3.80;;
85751;SDS011;76192;39.766;2.716;2024-03-06T05:49:19;9.50;;;4.40;;
85751;SDS011;76192;39.766;2.716;2024-03-06T05:51:44;10.00;;;4.50;;
85751;SDS011;76192;39.766;2.716;2024-03-06T05:54:10;7.40;;;5.40;;
85751;SDS011;76192;39.766;2.716;2024-03-06T05:56:36;7.50;;;4.70;;
85751;SDS011;76192;39.766;2.716;2024-03-06T05:59:02;6.70;;;5.00;;
85751;SDS011;76192;39.766;2.716;2024-03-06T06:01:30;8.30;;;4.30;;
85751;SDS011;76192;39.766;2.716;2024-03-06T06:03:56;6.50;;;5.10;;
85751;SDS011;76192;39.766;2.716;2024-03-06T06:06:22;8.20;;;4.30;;
85751;SDS011;76192;39.766;2.716;2024-03-06T06:08:47;6.60;;;3.70;;
85751;SDS011;76192;39.766;2.716;2024-03-06T06:11:13;8.20;;;4.00;;
85751;SDS011;76192;39.766;2.716;2024-03-06T06:13:39;6.40;;;2.60;;
85751;SDS011;76192;39.766;2.716;2024-03-06T06:16:05;5.30;;;3.10;;
85751;SDS011;76192;39.766;2.716;2024-03-06T06:18:32;4.30;;;2.50;;
85751;SDS011;76192;39.766;2.716;2024-03-06T06:20:58;5.30;;;3.00;;
85751;SDS011;76192;39.766;2.716;2024-03-06T06:23:24;8.00;;;3.90;;
85751;SDS011;76192;39.766;2.716;2024-03-06T06:25:50;5.60;;;4.10;;
85751;SDS011;76192;39.766;2.716;2024-03-06T06:28:16;6.40;;;5.70;;
85751;SDS011;76192;39.766;2.716;2024-03-06T06:30:42;5.80;;;4.70;;
85751;SDS011;76192;39.766;2.716;2024-03-06T06:33:08;10.70;;;5.00;;
85751;SDS011;76192;39.766;2.716;2024-03-06T06:35:34;8.50;;;5.20;;
85751;SDS011;76192;39.766;2.716;2024-03-06T06:38:00;5.50;;;4.00;;
85751;SDS011;76192;39.766;2.716;2024-03-06T06:40:26;7.00;;;4.60;;
85751;SDS011;76192;39.766;2.716;2024-03-06T06:42:53;7.30;;;4.90;;
85751;SDS011;76192;39.766;2.716;2024-03-06T06:45:19;7.20;;;4.90;;
85751;SDS011;76192;39.766;2.716;2024-03-06T06:47:46;7.70;;;5.30;;
85751;SDS011;76192;39.766;2.716;2024-03-06T06:50:13;8.00;;;6.20;;
85751;SDS011;76192;39.766;2.716;2024-03-06T06:52:38;9.60;;;5.90;;
85751;SDS011;76192;39.766;2.716;2024-03-06T06:55:04;13.00;;;6.40;;
85751;SDS011;76192;39.766;2.716;2024-03-06T06:57:31;25.60;;;16.60;;
85751;SDS011;76192;39.766;2.716;2024-03-06T07:00:01;18.70;;;14.40;;
85751;SDS011;76192;39.766;2.716;2024-03-06T07:02:39;12.60;;;9.80;;
85751;SDS011;76192;39.766;2.716;2024-03-06T07:05:06;14.00;;;7.10;;
85751;SDS011;76192;39.766;2.716;2024-03-06T07:07:33;22.20;;;13.60;;
85751;SDS011;76192;39.766;2.716;2024-03-06T07:09:59;29.10;;;18.40;;
85751;SDS011;76192;39.766;2.716;2024-03-06T07:12:26;42.70;;;26.20;;
85751;SDS011;76192;39.766;2.716;2024-03-06T07:14:51;35.60;;;20.70;;
85751;SDS011;76192;39.766;2.716;2024-03-06T07:17:17;22.20;;;15.00;;
85751;SDS011;76192;39.766;2.716;2024-03-06T07:19:43;19.90;;;12.00;;
85751;SDS011;76192;39.766;2.716;2024-03-06T07:22:08;10.80;;;8.00;;
85751;SDS011;76192;39.766;2.716;2024-03-06T07:24:34;15.90;;;9.00;;
85751;SDS011;76192;39.766;2.716;2024-03-06T07:26:59;14.60;;;9.70;;
85751;SDS011;76192;39.766;2.716;2024-03-06T07:29:27;13.60;;;10.00;;
85751;SDS011;76192;39.766;2.716;2024-03-06T07:31:53;15.00;;;11.40;;
85751;SDS011;76192;39.766;2.716;2024-03-06T07:34:19;18.70;;;10.00;;
85751;SDS011;76192;39.766;2.716;2024-03-06T07:36:46;12.90;;;8.20;;
85751;SDS011;76192;39.766;2.716;2024-03-06T07:39:14;12.50;;;7.60;;
85751;SDS011;76192;39.766;2.716;2024-03-06T07:41:40;15.10;;;9.70;;
85751;SDS011;76192;39.766;2.716;2024-03-06T07:44:07;11.00;;;7.70;;
85751;SDS011;76192;39.766;2.716;2024-03-06T07:46:34;9.90;;;6.20;;
85751;SDS011;76192;39.766;2.716;2024-03-06T07:49:00;10.40;;;6.00;;
85751;SDS011;76192;39.766;2.716;2024-03-06T07:51:28;7.60;;;5.50;;
85751;SDS011;76192;39.766;2.716;2024-03-06T07:53:55;9.30;;;5.00;;
85751;SDS011;76192;39.766;2.716;2024-03-06T07:56:22;11.40;;;6.50;;
85751;SDS011;76192;39.766;2.716;2024-03-06T07:58:48;8.90;;;6.30;;
85751;SDS011;76192;39.766;2.716;2024-03-06T08:01:15;14.10;;;7.40;;
85751;SDS011;76192;39.766;2.716;2024-03-06T08:03:41;9.40;;;7.40;;
85751;SDS011;76192;39.766;2.716;2024-03-06T08:06:08;8.60;;;6.00;;
85751;SDS011;76192;39.766;2.716;2024-03-06T08:08:34;9.10;;;6.00;;
85751;SDS011;76192;39.766;2.716;2024-03-06T08:11:00;12.30;;;6.50;;
85751;SDS011;76192;39.766;2.716;2024-03-06T08:13:26;6.50;;;5.10;;
85751;SDS011;76192;39.766;2.716;2024-03-06T08:15:53;6.90;;;5.50;;
85751;SDS011;76192;39.766;2.716;2024-03-06T08:18:18;13.70;;;5.30;;
85751;SDS011;76192;39.766;2.716;2024-03-06T08:20:44;12.50;;;6.00;;
85751;SDS011;76192;39.766;2.716;2024-03-06T08:23:10;10.80;;;7.60;;
85751;SDS011;76192;39.766;2.716;2024-03-06T08:25:35;11.60;;;8.20;;
85751;SDS011;76192;39.766;2.716;2024-03-06T08:28:01;14.20;;;9.40;;
85751;SDS011;76192;39.766;2.716;2024-03-06T08:30:31;13.90;;;9.60;;
85751;SDS011;76192;39.766;2.716;2024-03-06T08:32:57;9.30;;;7.00;;
85751;SDS011;76192;39.766;2.716;2024-03-06T08:35:23;8.00;;;6.50;;
85751;SDS011;76192;39.766;2.716;2024-03-06T08:37:49;10.30;;;7.20;;
85751;SDS011;76192;39.766;2.716;2024-03-06T08:40:16;9.20;;;7.50;;
85751;SDS011;76192;39.766;2.716;2024-03-06T08:42:45;12.20;;;8.60;;
85751;SDS011;76192;39.766;2.716;2024-03-06T08:45:15;12.10;;;8.20;;
85751;SDS011;76192;39.766;2.716;2024-03-06T08:47:42;10.00;;;7.50;;
85751;SDS011;76192;39.766;2.716;2024-03-06T08:50:09;11.10;;;6.50;;
85751;SDS011;76192;39.766;2.716;2024-03-06T08:52:35;16.60;;;9.70;;
85751;SDS011;76192;39.766;2.716;2024-03-06T08:55:02;11.70;;;5.90;;
85751;SDS011;76192;39.766;2.716;2024-03-06T08:57:31;7.60;;;4.20;;
85751;SDS011;76192;39.766;2.716;2024-03-06T08:59:57;11.80;;;5.00;;
85751;SDS011;76192;39.766;2.716;2024-03-06T09:02:24;11.50;;;6.10;;
85751;SDS011;76192;39.766;2.716;2024-03-06T09:04:50;36.30;;;16.70;;
85751;SDS011;76192;39.766;2.716;2024-03-06T09:07:17;71.40;;;35.10;;
85751;SDS011;76192;39.766;2.716;2024-03-06T09:09:43;97.30;;;49.70;;
85751;SDS011;76192;39.766;2.716;2024-03-06T09:12:09;161.80;;;78.40;;
85751;SDS011;76192;39.766;2.716;2024-03-06T09:14:38;176.00;;;80.70;;
85751;SDS011;76192;39.766;2.716;2024-03-06T09:17:05;170.50;;;82.20;;
85751;SDS011;76192;39.766;2.716;2024-03-06T09:19:31;217.10;;;101.50;;
85751;SDS011;76192;39.766;2.716;2024-03-06T09:21:58;221.30;;;104.40;;
85751;SDS011;76192;39.766;2.716;2024-03-06T09:24:24;238.80;;;111.20;;
85751;SDS011;76192;39.766;2.716;2024-03-06T09:26:51;181.20;;;80.00;;
85751;SDS011;76192;39.766;2.716;2024-03-06T09:29:18;125.60;;;62.20;;
85751;SDS011;76192;39.766;2.716;2024-03-06T09:31:44;74.40;;;34.50;;
85751;SDS011;76192;39.766;2.716;2024-03-06T09:34:11;59.00;;;29.80;;
85751;SDS011;76192;39.766;2.716;2024-03-06T09:36:38;40.00;;;18.00;;
85751;SDS011;76192;39.766;2.716;2024-03-06T09:39:11;40.90;;;19.80;;
85751;SDS011;76192;39.766;2.716;2024-03-06T09:41:37;54.00;;;25.00;;
85751;SDS011;76192;39.766;2.716;2024-03-06T09:44:06;81.30;;;37.80;;
85751;SDS011;76192;39.766;2.716;2024-03-06T09:46:32;99.30;;;45.00;;
85751;SDS011;76192;39.766;2.716;2024-03-06T09:48:59;63.40;;;27.30;;
85751;SDS011;76192;39.766;2.716;2024-03-06T09:51:26;26.60;;;11.10;;
85751;SDS011;76192;39.766;2.716;2024-03-06T09:53:52;10.50;;;5.60;;
85751;SDS011;76192;39.766;2.716;2024-03-06T09:56:19;8.40;;;4.40;;
85751;SDS011;76192;39.766;2.716;2024-03-06T09:58:45;10.70;;;4.60;;
85751;SDS011;76192;39.766;2.716;2024-03-06T10:01:12;12.40;;;6.40;;
85751;SDS011;76192;39.766;2.716;2024-03-06T10:03:39;8.50;;;3.20;;
85751;SDS011;76192;39.766;2.716;2024-03-06T10:06:08;6.50;;;2.90;;
85751;SDS011;76192;39.766;2.716;2024-03-06T10:08:34;6.90;;;2.40;;
85751;SDS011;76192;39.766;2.716;2024-03-06T10:11:00;4.60;;;1.80;;
85751;SDS011;76192;39.766;2.716;2024-03-06T10:13:26;4.50;;;2.00;;
85751;SDS011;76192;39.766;2.716;2024-03-06T10:15:59;5.90;;;2.10;;
85751;SDS011;76192;39.766;2.716;2024-03-06T10:18:27;5.00;;;1.80;;
85751;SDS011;76192;39.766;2.716;2024-03-06T10:20:54;3.80;;;1.50;;
85751;SDS011;76192;39.766;2.716;2024-03-06T10:23:20;7.20;;;2.20;;
85751;SDS011;76192;39.766;2.716;2024-03-06T10:25:48;5.40;;;1.60;;
85751;SDS011;76192;39.766;2.716;2024-03-06T10:28:22;7.60;;;2.40;;
85751;SDS011;76192;39.766;2.716;2024-03-06T10:30:49;3.70;;;1.70;;
85751;SDS011;76192;39.766;2.716;2024-03-06T10:33:17;4.30;;;1.90;;
85751;SDS011;76192;39.766;2.716;2024-03-06T10:35:44;4.40;;;1.30;;
85751;SDS011;76192;39.766;2.716;2024-03-06T10:38:11;4.20;;;1.50;;
85751;SDS011;76192;39.766;2.716;2024-03-06T10:40:38;9.10;;;5.40;;
85751;SDS011;76192;39.766;2.716;2024-03-06T10:43:08;5.40;;;2.30;;
85751;SDS011;76192;39.766;2.716;2024-03-06T10:45:46;7.60;;;3.80;;
85751;SDS011;76192;39.766;2.716;2024-03-06T10:48:13;8.40;;;2.70;;
85751;SDS011;76192;39.766;2.716;2024-03-06T10:50:40;8.90;;;4.00;;
85751;SDS011;76192;39.766;2.716;2024-03-06T10:53:09;8.90;;;3.70;;
85751;SDS011;76192;39.766;2.716;2024-03-06T10:55:36;10.00;;;5.00;;
85751;SDS011;76192;39.766;2.716;2024-03-06T10:58:02;16.90;;;7.10;;
85751;SDS011;76192;39.766;2.716;2024-03-06T11:00:34;10.50;;;5.00;;
85751;SDS011;76192;39.766;2.716;2024-03-06T11:03:07;10.70;;;5.90;;
85751;SDS011;76192;39.766;2.716;2024-03-06T11:05:43;6.00;;;2.70;;
85751;SDS011;76192;39.766;2.716;2024-03-06T11:08:12;14.10;;;7.00;;
85751;SDS011;76192;39.766;2.716;2024-03-06T11:10:40;12.80;;;5.60;;
85751;SDS011;76192;39.766;2.716;2024-03-06T11:15:44;8.30;;;3.90;;
85751;SDS011;76192;39.766;2.716;2024-03-06T11:23:29;7.60;;;3.20;;
85751;SDS011;76192;39.766;2.716;2024-03-06T11:28:24;6.60;;;2.30;;
85751;SDS011;76192;39.766;2.716;2024-03-06T11:33:19;6.70;;;2.30;;
85751;SDS011;76192;39.766;2.716;2024-03-06T11:38:51;5.10;;;2.00;;
85751;SDS011;76192;39.766;2.716;2024-03-06T11:41:31;5.40;;;1.80;;
85751;SDS011;76192;39.766;2.716;2024-03-06T11:44:18;5.70;;;1.70;;
85751;SDS011;76192;39.766;2.716;2024-03-06T11:46:50;2.70;;;1.30;;
85751;SDS011;76192;39.766;2.716;2024-03-06T11:49:22;5.50;;;2.00;;
85751;SDS011;76192;39.766;2.716;2024-03-06T11:51:53;3.60;;;1.50;;
85751;SDS011;76192;39.766;2.716;2024-03-06T11:54:20;2.90;;;1.80;;
85751;SDS011;76192;39.766;2.716;2024-03-06T11:56:50;5.60;;;1.80;;
85751;SDS011;76192;39.766;2.716;2024-03-06T11:59:20;5.20;;;2.10;;
85751;SDS011;76192;39.766;2.716;2024-03-06T12:01:50;10.20;;;2.20;;
85751;SDS011;76192;39.766;2.716;2024-03-06T12:04:18;7.30;;;2.30;;
85751;SDS011;76192;39.766;2.716;2024-03-06T12:06:44;6.00;;;1.80;;
85751;SDS011;76192;39.766;2.716;2024-03-06T12:09:10;4.70;;;1.90;;
85751;SDS011;76192;39.766;2.716;2024-03-06T12:11:39;4.30;;;1.90;;
85751;SDS011;76192;39.766;2.716;2024-03-06T12:14:04;6.00;;;1.80;;
85751;SDS011;76192;39.766;2.716;2024-03-06T12:16:30;7.20;;;2.80;;
85751;SDS011;76192;39.766;2.716;2024-03-06T12:18:56;6.50;;;1.80;;
85751;SDS011;76192;39.766;2.716;2024-03-06T12:21:31;6.30;;;1.70;;
85751;SDS011;76192;39.766;2.716;2024-03-06T12:24:07;8.50;;;2.70;;
85751;SDS011;76192;39.766;2.716;2024-03-06T12:26:34;4.30;;;1.60;;
85751;SDS011;76192;39.766;2.716;2024-03-06T12:29:04;8.40;;;3.10;;
85751;SDS011;76192;39.766;2.716;2024-03-06T12:31:34;6.20;;;2.70;;
85751;SDS011;76192;39.766;2.716;2024-03-06T12:34:00;4.90;;;1.70;;
85751;SDS011;76192;39.766;2.716;2024-03-06T12:36:29;4.80;;;1.50;;
85751;SDS011;76192;39.766;2.716;2024-03-06T12:38:56;6.90;;;2.20;;
85751;SDS011;76192;39.766;2.716;2024-03-06T12:41:25;4.80;;;2.10;;
85751;SDS011;76192;39.766;2.716;2024-03-06T12:43:54;9.90;;;2.40;;
85751;SDS011;76192;39.766;2.716;2024-03-06T12:46:21;7.30;;;2.80;;
85751;SDS011;76192;39.766;2.716;2024-03-06T12:48:47;5.80;;;2.20;;
85751;SDS011;76192;39.766;2.716;2024-03-06T12:51:13;7.10;;;1.90;;
85751;SDS011;76192;39.766;2.716;2024-03-06T12:53:38;5.30;;;1.90;;
85751;SDS011;76192;39.766;2.716;2024-03-06T12:56:05;4.80;;;1.90;;
85751;SDS011;76192;39.766;2.716;2024-03-06T12:58:31;3.10;;;1.50;;
85751;SDS011;76192;39.766;2.716;2024-03-06T13:00:57;10.00;;;2.70;;
85751;SDS011;76192;39.766;2.716;2024-03-06T13:03:24;5.90;;;2.00;;
85751;SDS011;76192;39.766;2.716;2024-03-06T13:05:50;9.50;;;2.30;;
85751;SDS011;76192;39.766;2.716;2024-03-06T13:08:15;4.10;;;1.60;;
85751;SDS011;76192;39.766;2.716;2024-03-06T13:10:42;4.30;;;1.80;;
85751;SDS011;76192;39.766;2.716;2024-03-06T13:13:08;4.60;;;2.20;;
85751;SDS011;76192;39.766;2.716;2024-03-06T13:15:34;6.00;;;1.90;;
85751;SDS011;76192;39.766;2.716;2024-03-06T13:18:00;6.00;;;2.40;;
85751;SDS011;76192;39.766;2.716;2024-03-06T13:20:29;8.10;;;3.50;;
85751;SDS011;76192;39.766;2.716;2024-03-06T13:22:55;5.10;;;2.10;;
85751;SDS011;76192;39.766;2.716;2024-03-06T13:25:21;5.70;;;2.00;;
85751;SDS011;76192;39.766;2.716;2024-03-06T13:27:46;4.50;;;2.30;;
85751;SDS011;76192;39.766;2.716;2024-03-06T13:30:12;3.00;;;1.50;;
85751;SDS011;76192;39.766;2.716;2024-03-06T13:32:38;3.90;;;1.50;;
85751;SDS011;76192;39.766;2.716;2024-03-06T13:35:04;6.00;;;1.70;;
85751;SDS011;76192;39.766;2.716;2024-03-06T13:37:31;5.50;;;2.00;;
85751;SDS011;76192;39.766;2.716;2024-03-06T13:39:57;5.80;;;1.80;;
85751;SDS011;76192;39.766;2.716;2024-03-06T13:42:28;3.70;;;2.10;;
85751;SDS011;76192;39.766;2.716;2024-03-06T13:44:53;10.20;;;3.70;;
85751;SDS011;76192;39.766;2.716;2024-03-06T13:47:19;3.70;;;2.30;;
85751;SDS011;76192;39.766;2.716;2024-03-06T13:49:44;8.60;;;2.70;;
85751;SDS011;76192;39.766;2.716;2024-03-06T13:52:10;5.70;;;2.20;;
85751;SDS011;76192;39.766;2.716;2024-03-06T13:54:38;5.70;;;2.70;;
85751;SDS011;76192;39.766;2.716;2024-03-06T13:57:08;4.10;;;1.90;;
85751;SDS011;76192;39.766;2.716;2024-03-06T13:59:34;5.50;;;2.10;;
85751;SDS011;76192;39.766;2.716;2024-03-06T14:02:00;7.30;;;1.70;;
85751;SDS011;76192;39.766;2.716;2024-03-06T14:04:28;5.20;;;2.30;;
85751;SDS011;76192;39.766;2.716;2024-03-06T14:06:54;5.20;;;2.70;;
85751;SDS011;76192;39.766;2.716;2024-03-06T14:09:22;6.10;;;2.20;;
85751;SDS011;76192;39.766;2.716;2024-03-06T14:11:49;8.00;;;3.40;;
85751;SDS011;76192;39.766;2.716;2024-03-06T14:14:15;5.00;;;1.80;;
85751;SDS011;76192;39.766;2.716;2024-03-06T14:16:43;5.10;;;1.40;;
85751;SDS011;76192;39.766;2.716;2024-03-06T14:19:08;5.80;;;1.80;;
85751;SDS011;76192;39.766;2.716;2024-03-06T14:21:34;4.40;;;2.00;;
85751;SDS011;76192;39.766;2.716;2024-03-06T14:24:00;6.20;;;2.10;;
85751;SDS011;76192;39.766;2.716;2024-03-06T14:26:32;13.70;;;7.40;;
85751;SDS011;76192;39.766;2.716;2024-03-06T14:28:59;7.20;;;3.30;;
85751;SDS011;76192;39.766;2.716;2024-03-06T14:31:25;4.40;;;2.30;;
85751;SDS011;76192;39.766;2.716;2024-03-06T14:33:51;7.30;;;2.00;;
85751;SDS011;76192;39.766;2.716;2024-03-06T14:36:17;10.00;;;3.00;;
85751;SDS011;76192;39.766;2.716;2024-03-06T14:38:43;7.20;;;2.90;;
85751;SDS011;76192;39.766;2.716;2024-03-06T14:41:09;4.70;;;2.20;;
85751;SDS011;76192;39.766;2.716;2024-03-06T14:43:38;6.20;;;2.30;;
85751;SDS011;76192;39.766;2.716;2024-03-06T14:46:04;5.90;;;2.00;;
85751;SDS011;76192;39.766;2.716;2024-03-06T14:48:31;8.20;;;2.40;;
85751;SDS011;76192;39.766;2.716;2024-03-06T14:50:59;4.00;;;1.80;;
85751;SDS011;76192;39.766;2.716;2024-03-06T14:53:28;6.00;;;2.50;;